Latest Weather Observations for Wangaratta

IDV60801

Issued at 10:05 pm EST Saturday 19 April 2014 (issued every 30 minutes, with the page automatically refreshed every 10 minutes)

About weather observations | Map of weather stations | Latest weather observations for VIC | Other Formats
Station Details ID: 082138 Name: WANGARATTA AERO Lat: -36.42 Lon: 146.31 Height: 152.6 m
Data from the previous 72 hours. | See also: Recent months at Wangaratta
Date/Time
EST
Temp
°C
App
Temp
°C
Dew
Point
Rel
Hum
%
Delta-T
°C
Wind Press
QNH
hPa
Press
MSL
hPa
Rain
since 9 am
mm
Dir
 
Spd
km/h
Gust
km/h
Spd
kts
Gust
kts
19/10:00pm 7.0 5.8 4.8 86 1.0 SE 0 0 0 0 1018.0 - 0.0
19/09:30pm 9.0 8.1 5.9 81 1.4 WSW 0 0 0 0 1018.1 - 0.0
19/09:00pm 9.5 7.3 6.4 81 1.4 SW 7 9 4 5 1018.0 1017.9 0.0
19/08:30pm 10.2 7.7 6.5 78 1.7 SW 9 13 5 7 1017.8 - 0.0
19/08:00pm 11.0 7.4 6.7 75 2.0 SW 15 17 8 9 1017.8 - 0.0
19/07:30pm 11.3 7.7 6.8 74 2.2 SW 15 19 8 10 1017.9 - 0.0
19/07:00pm 11.8 8.7 7.1 73 2.3 SW 13 17 7 9 1017.7 - 0.0
19/06:30pm 12.4 8.5 6.9 69 2.7 SW 17 20 9 11 1017.6 - 0.0
19/06:00pm 13.3 9.4 7.1 66 3.0 WSW 17 24 9 13 1017.3 1017.2 0.0
19/05:30pm 14.3 10.6 6.4 59 3.8 SW 15 20 8 11 1017.2 - 0.0
19/05:00pm 15.7 11.8 7.0 56 4.3 SW 17 20 9 11 1017.1 - 0.0
19/04:30pm 16.6 12.5 6.1 50 5.1 WSW 17 24 9 13 1017.0 - 0.0
19/04:00pm 17.0 12.6 6.5 50 5.2 WSW 19 28 10 15 1017.1 - 0.0
19/03:30pm 16.4 11.4 6.5 52 4.9 WSW 22 28 12 15 1017.1 - 0.0
19/03:00pm 16.3 11.9 6.7 53 4.7 WSW 19 26 10 14 1017.2 1017.1 0.0
19/02:30pm 16.2 12.3 7.2 55 4.5 WSW 17 26 9 14 1017.3 - 0.0
19/02:00pm 16.0 12.2 5.6 50 5.0 SSW 15 20 8 11 1017.6 - 0.0
19/01:30pm 15.9 11.9 4.9 48 5.2 SW 15 22 8 12 1017.8 - 0.0
19/01:00pm 16.1 13.9 5.1 48 5.3 NW 6 13 3 7 1018.2 - 0.0
19/12:30pm 15.3 13.3 6.1 54 4.5 WSW 6 15 3 8 1018.9 - 0.0
19/12:00pm 15.8 13.4 5.1 49 5.1 SW 7 9 4 5 1019.2 1019.0 0.0
19/11:30am 15.3 12.6 5.5 52 4.7 SSW 9 15 5 8 1019.5 - 0.0
19/11:00am 14.0 12.0 7.1 63 3.4 SW 7 13 4 7 1019.9 - 0.0
19/10:30am 13.0 11.0 7.2 68 2.8 SSW 7 13 4 7 1020.0 - 0.0
19/10:00am 12.3 10.6 8.2 76 2.0 SSW 7 11 4 6 1020.1 - 0.0
19/09:30am 10.9 8.8 6.8 76 2.0 SE 7 11 4 6 1020.1 - 0.0
19/09:00am 9.5 7.2 5.9 78 1.7 SE 7 11 4 6 1020.1 1019.9 0.8
19/08:30am 8.3 5.6 5.8 84 1.1 SE 9 11 5 6 1020.0 - 0.8
19/08:00am 7.1 4.8 5.6 90 0.7 SE 7 11 4 6 1019.8 - 0.8
19/07:30am 5.4 2.8 4.4 93 0.4 ESE 7 9 4 5 1019.3 - 0.8
19/07:00am 5.6 3.1 4.9 95 0.3 SE 7 9 4 5 1019.0 - 0.8
19/06:30am 5.5 3.2 4.6 94 0.4 SE 6 7 3 4 1018.9 - 0.8
19/06:00am 5.2 2.2 4.0 92 0.5 SSE 9 11 5 6 1018.5 1018.4 0.8
19/05:30am 5.3 2.7 4.0 91 0.6 E 7 9 4 5 1018.4 - 0.8
19/05:00am 7.7 5.3 5.2 84 1.1 SSE 7 13 4 7 1018.2 - 0.8
19/04:30am 8.9 6.3 6.3 84 1.2 SW 9 13 5 7 1018.0 - 0.8
19/04:00am 9.0 5.3 6.3 83 1.3 SW 15 19 8 10 1017.9 - 0.8
19/03:30am 8.8 4.6 5.7 81 1.4 SW 17 20 9 11 1017.8 - 0.8
19/03:00am 9.2 4.6 5.8 79 1.6 WSW 19 24 10 13 1017.8 1017.7 0.8
19/02:30am 9.3 4.7 5.7 78 1.7 WSW 19 20 10 11 1017.8 - 0.8
19/02:00am 9.3 4.7 5.5 77 1.7 SW 19 20 10 11 1018.0 - 0.8
19/01:30am 9.7 5.1 5.5 75 1.9 SW 19 24 10 13 1018.4 - 0.8
19/01:00am 9.8 5.2 5.6 75 1.9 SW 19 22 10 12 1018.4 - 0.8
19/12:30am 10.0 5.7 5.4 73 2.1 WSW 17 20 9 11 1018.3 - 0.8
19/12:00am 9.6 5.8 5.6 76 1.8 WSW 15 19 8 10 1018.4 1018.3 0.8
 
Date/Time
EST
Temp
°C
App
Temp
°C
Dew
Point
Rel
Hum
%
Delta-T
°C
Wind Press
QNH
hPa
Press
MSL
hPa
Rain
since 9 am
mm
Dir
 
Spd
km/h
Gust
km/h
Spd
kts
Gust
kts
18/11:30pm 9.7 5.5 5.9 77 1.8 WSW 17 19 9 10 1018.5 - 0.8
18/11:00pm 9.6 6.2 5.8 77 1.8 WSW 13 17 7 9 1018.7 - 0.8
18/10:30pm 10.7 6.5 5.9 72 2.2 SW 17 20 9 11 1018.9 - 0.8
18/10:00pm 9.6 6.2 6.1 79 1.6 SW 13 19 7 10 1018.7 - 0.8
18/09:30pm 9.4 5.6 5.9 79 1.6 SSW 15 17 8 9 1018.7 - 0.8
18/09:00pm 11.0 7.7 6.4 73 2.2 SW 13 17 7 9 1018.4 1018.3 0.8
18/08:30pm 11.4 7.4 6.5 72 2.3 SW 17 22 9 12 1018.2 - 0.8
18/08:00pm 11.2 7.9 6.3 72 2.3 SW 13 17 7 9 1017.9 - 0.8
18/07:30pm 11.6 8.7 6.3 70 2.5 SW 11 15 6 8 1017.5 - 0.8
18/07:00pm 12.7 8.6 6.3 65 3.1 SW 17 22 9 12 1017.2 - 0.8
18/06:30pm 13.1 9.4 7.8 70 2.6 SW 17 20 9 11 1016.8 - 0.8
18/06:00pm 14.4 8.6 8.1 66 3.2 SSW 28 39 15 21 1016.4 1016.3 0.8
18/05:30pm 15.1 12.9 10.7 75 2.3 SW 13 17 7 9 1016.1 - 0.8
18/05:00pm 15.2 12.7 11.0 76 2.3 SSW 15 22 8 12 1015.7 - 0.8
18/04:30pm 15.1 13.1 12.6 85 1.4 SSW 15 20 8 11 1015.4 - 0.8
18/04:00pm 14.3 11.5 12.5 89 1.0 SW 19 26 10 14 1015.3 - 0.6
18/03:30pm 17.7 14.8 12.2 70 3.1 SW 19 26 10 14 1014.7 - 0.0
18/03:00pm 19.1 16.6 11.2 60 4.3 WSW 15 20 8 11 1014.5 1014.3 0.0
18/02:30pm 19.0 16.2 11.3 61 4.2 WSW 17 20 9 11 1014.6 - 0.0
18/02:00pm 19.1 15.4 11.4 61 4.2 SW 22 28 12 15 1014.9 - 0.0
18/01:30pm 19.6 15.9 11.4 59 4.5 W 22 32 12 17 1014.9 - 0.0
18/01:00pm 19.7 16.5 11.2 58 4.7 W 19 32 10 17 1015.2 - 0.0
18/12:30pm 18.1 17.3 11.7 66 3.5 WNW 7 11 4 6 1015.8 - 0.0
18/12:00pm 17.6 16.7 11.4 67 3.4 NNW 7 11 4 6 1016.1 1016.0 0.0
18/11:30am 17.1 15.8 11.2 68 3.2 N 9 13 5 7 1016.4 - 0.0
18/11:00am 16.3 14.9 10.8 70 3.0 N 9 15 5 8 1016.8 - 0.0
18/10:30am 15.8 14.9 11.4 75 2.4 NNE 7 13 4 7 1016.8 - 0.0
18/10:00am 13.7 12.7 10.9 83 1.5 NE 7 11 4 6 1017.3 - 0.0
18/09:30am 12.1 12.4 10.8 92 0.7 CALM 0 0 0 0 1017.9 - 0.0
18/09:00am 11.4 11.7 10.9 97 0.3 CALM 0 6 0 3 1018.1 1018.0 0.0
18/08:30am 10.2 10.3 10.0 99 0.1 CALM 0 0 0 0 1018.0 - 0.0
18/08:00am 9.7 9.3 9.6 99 0.1 SW 2 7 1 4 1018.0 - 0.0
18/07:30am 8.9 8.6 8.8 99 0.0 CALM 0 4 0 2 1017.9 - 0.0
18/07:00am 8.1 7.6 8.0 99 0.0 CALM 0 0 0 0 1017.9 - 0.0
18/06:30am 7.2 6.5 7.1 99 0.0 CALM 0 0 0 0 1017.7 - 0.0
18/06:00am 6.3 5.4 6.2 99 0.0 CALM 0 0 0 0 1017.7 1017.6 0.0
18/05:30am 6.5 5.7 6.4 99 0.0 CALM 0 0 0 0 1017.7 - 0.0
18/05:00am 7.3 6.7 7.2 99 0.0 CALM 0 0 0 0 1017.8 - 0.0
18/04:30am 7.2 6.1 7.1 99 0.0 WSW 2 6 1 3 1017.7 - 0.0
18/04:00am 7.2 6.5 7.1 99 0.0 CALM 0 0 0 0 1017.5 - 0.0
18/03:30am 8.1 7.3 8.0 99 0.0 SSW 2 6 1 3 1017.6 - 0.0
18/03:00am 8.0 6.4 7.9 99 0.0 SSW 6 7 3 4 1017.8 1017.7 0.0
18/02:30am 8.4 6.7 8.3 99 0.0 SSW 7 7 4 4 1018.2 - 0.0
18/02:00am 8.7 8.4 8.6 99 0.0 CALM 0 0 0 0 1018.4 - 0.0
18/01:30am 8.7 8.3 8.4 98 0.1 CALM 0 0 0 0 1018.6 - 0.0
18/01:00am 9.0 8.7 8.7 98 0.1 CALM 0 0 0 0 1018.9 - 0.0
18/12:30am 9.5 9.3 9.0 97 0.2 CALM 0 0 0 0 1019.2 - 0.0
18/12:00am 9.7 9.5 9.2 97 0.2 CALM 0 0 0 0 1019.3 1019.1 0.0
 
Date/Time
EST
Temp
°C
App
Temp
°C
Dew
Point
Rel
Hum
%
Delta-T
°C
Wind Press
QNH
hPa
Press
MSL
hPa
Rain
since 9 am
mm
Dir
 
Spd
km/h
Gust
km/h
Spd
kts
Gust
kts
17/11:30pm 10.3 10.3 9.7 96 0.3 CALM 0 0 0 0 1019.4 - 0.0
17/11:00pm 10.3 10.2 9.5 95 0.4 CALM 0 0 0 0 1019.6 - 0.0
17/10:30pm 10.8 10.8 9.7 93 0.6 CALM 0 0 0 0 1019.7 - 0.0
17/10:00pm 11.4 10.8 10.3 93 0.6 SE 4 7 2 4 1020.0 - 0.0
17/09:30pm 11.8 11.9 10.2 90 0.8 CALM 0 0 0 0 1019.9 - 0.0
17/09:00pm 11.9 10.8 10.1 89 0.9 SE 6 7 3 4 1019.8 1019.6 0.0
17/08:30pm 12.7 12.4 10.1 84 1.3 N 2 6 1 3 1019.8 - 0.0
17/08:00pm 13.7 13.9 10.5 81 1.7 CALM 0 0 0 0 1019.7 - 0.0
17/07:30pm 14.0 12.9 10.6 80 1.8 W 7 9 4 5 1019.6 - 0.0
17/07:00pm 15.5 15.7 10.5 72 2.7 CALM 0 0 0 0 1019.5 - 0.0
17/06:30pm 16.1 15.8 10.2 68 3.1 W 2 6 1 3 1019.3 - 0.0
17/06:00pm 17.0 16.1 11.5 70 3.0 W 7 9 4 5 1019.1 1018.9 0.0
17/05:30pm 18.7 17.4 9.8 56 4.8 W 7 9 4 5 1019.0 - 0.0
17/05:00pm 20.9 18.9 10.1 50 5.9 W 11 13 6 7 1018.9 - 0.0
17/04:30pm 21.5 19.0 9.7 47 6.4 W 13 17 7 9 1018.9 - 0.0
17/04:00pm 21.7 18.8 9.6 46 6.6 WSW 15 24 8 13 1019.0 - 0.0
17/03:30pm 22.1 20.2 8.9 43 7.1 WSW 9 17 5 9 1019.0 - 0.0
17/03:00pm 21.6 19.4 9.2 45 6.6 SSW 11 17 6 9 1019.3 1019.1 0.0
17/02:30pm 21.3 18.8 8.2 43 6.9 SW 11 20 6 11 1019.6 - 0.0
17/02:00pm 21.4 19.1 9.0 45 6.6 W 11 17 6 9 1019.6 - 0.0
17/01:30pm 21.3 19.4 9.2 46 6.5 WNW 9 15 5 8 1019.8 - 0.0
17/01:00pm 21.0 20.3 9.9 49 6.0 WSW 4 7 2 4 1020.2 - 0.0
17/12:30pm 20.7 19.8 10.5 52 5.6 WNW 6 9 3 5 1020.6 - 0.0
17/12:00pm 19.6 19.4 11.9 61 4.3 SSE 4 9 2 5 1021.0 1020.8 0.0
17/11:30am 18.9 18.5 11.0 60 4.3 N 4 13 2 7 1021.3 - 0.0
17/11:00am 17.8 17.3 10.7 63 3.8 NNE 4 7 2 4 1021.6 - 0.0
17/10:30am 17.3 17.6 10.9 66 3.5 CALM 0 6 0 3 1021.7 - 0.0
17/10:00am 15.3 14.8 10.9 75 2.4 SSE 4 9 2 5 1021.7 - 0.0
17/09:30am 13.9 13.6 10.1 78 2.0 SSE 2 7 1 4 1021.7 - 0.0
17/09:00am 12.1 11.2 10.5 90 0.8 S 6 7 3 4 1021.9 1021.8 0.0
17/08:30am 10.7 10.9 10.5 99 0.1 CALM 0 0 0 0 1022.0 - 0.0
17/08:00am 9.2 9.0 9.1 99 0.0 CALM 0 0 0 0 1021.8 - 0.0
17/07:30am 7.4 6.8 7.3 99 0.0 CALM 0 0 0 0 1021.5 - 0.0
17/07:00am 6.3 5.4 6.2 99 0.0 CALM 0 0 0 0 1021.2 - 0.0
17/06:30am 6.7 5.9 6.6 99 0.0 CALM 0 0 0 0 1020.7 - 0.0
17/06:00am 6.7 5.9 6.6 99 0.0 CALM 0 0 0 0 1020.5 1020.3 0.0
17/05:30am 6.5 5.7 6.4 99 0.0 CALM 0 0 0 0 1020.3 - 0.0
17/05:00am 6.1 4.8 6.0 99 0.0 NNW 2 7 1 4 1020.2 - 0.0
17/04:30am 6.0 3.7 5.9 99 0.0 SE 7 9 4 5 1019.9 - 0.0
17/04:00am 7.2 5.4 7.1 99 0.0 S 6 7 3 4 1019.8 - 0.0
17/03:30am 7.0 5.1 6.9 99 0.0 SSW 6 9 3 5 1019.5 - 0.0
17/03:00am 7.6 5.9 7.5 99 0.0 S 6 7 3 4 1019.4 1019.2 0.0
17/02:30am 7.4 5.4 7.3 99 0.0 SSW 7 9 4 5 1019.3 - 0.0
17/02:00am 8.1 7.6 8.0 99 0.0 CALM 0 0 0 0 1019.4 - 0.0
17/01:30am 8.3 7.9 8.2 99 0.0 CALM 0 0 0 0 1019.5 - 0.0
17/01:00am 8.5 8.1 8.4 99 0.0 CALM 0 0 0 0 1019.8 - 0.0
17/12:30am 8.3 7.5 8.0 98 0.1 S 2 6 1 3 1019.9 - 0.0
17/12:00am 9.0 8.3 8.7 98 0.1 SE 2 7 1 4 1020.0 1019.8 0.0
 
Date/Time
EST
Temp
°C
App
Temp
°C
Dew
Point
Rel
Hum
%
Delta-T
°C
Wind Press
QNH
hPa
Press
MSL
hPa
Rain
since 9 am
mm
Dir
 
Spd
km/h
Gust
km/h
Spd
kts
Gust
kts
16/11:30pm 9.8 9.7 9.5 98 0.2 CALM 0 0 0 0 1020.2 - 0.0
16/11:00pm 9.9 9.8 9.3 96 0.3 CALM 0 0 0 0 1020.3 - 0.0
16/10:30pm 10.0 9.8 9.1 94 0.4 CALM 0 0 0 0 1020.4 - 0.0

Other Formats:

Comma delimited format used in spreadsheet applications
http://www.bom.gov.au/fwo/IDV60801/IDV60801.94889.axf

JavaScript Object Notation format (JSON) in row-major order
http://www.bom.gov.au/fwo/IDV60801/IDV60801.94889.json